Time;durP1;ratioP1;P1;durP2;ratioP2;P2;SDS_P1;SDS_P2;PMS_P1;PMS_P2;Temp;Humidity;BMP_temperature;BMP_pressure;BME280_temperature;BME280_humidity;BME280_pressure;Samples;Min_cycle;Max_cycle;Signal;HPM_P1;HPM_P2
2021/01/16 00:01:05;;;;;;;33.88;22.42;;;;;;;;;;6273695;22;20803;-81
2021/01/16 00:03:32;;;;;;;32.63;22.50;;;;;;;;;;6272715;22;20349;-82
2021/01/16 00:05:59;;;;;;;33.53;21.95;;;;;;;;;;6273502;22;20377;-81
2021/01/16 00:08:25;;;;;;;30.77;22.25;;;;;;;;;;6274287;22;20801;-83
2021/01/16 00:10:53;;;;;;;32.45;21.90;;;;;;;;;;6301077;22;20386;-79
2021/01/16 00:13:20;;;;;;;32.93;21.97;;;;;;;;;;6274552;22;20424;-82
2021/01/16 00:15:46;;;;;;;31.92;21.92;;;;;;;;;;6272974;22;20346;-81
2021/01/16 00:18:13;;;;;;;32.97;22.05;;;;;;;;;;6272953;22;20791;-82
2021/01/16 00:20:40;;;;;;;31.80;21.98;;;;;;;;;;6274099;22;20354;-83
2021/01/16 00:23:06;;;;;;;31.60;21.35;;;;;;;;;;6273313;22;20381;-82
2021/01/16 00:25:33;;;;;;;31.25;21.13;;;;;;;;;;6272998;22;20359;-81
2021/01/16 00:27:59;;;;;;;32.90;21.05;;;;;;;;;;6273482;22;20347;-81
2021/01/16 00:30:27;;;;;;;30.92;21.42;;;;;;;;;;6274366;22;20630;-81
2021/01/16 00:32:53;;;;;;;28.77;20.40;;;;;;;;;;6274154;22;20346;-82
2021/01/16 00:35:20;;;;;;;27.87;19.50;;;;;;;;;;6274059;22;20351;-81
2021/01/16 00:37:47;;;;;;;30.27;20.92;;;;;;;;;;6273189;22;20370;-81
2021/01/16 00:40:15;;;;;;;30.63;20.75;;;;;;;;;;6273045;22;20908;-81
2021/01/16 00:42:42;;;;;;;31.73;20.17;;;;;;;;;;6274197;22;20877;-81
2021/01/16 00:45:09;;;;;;;29.67;21.10;;;;;;;;;;6273557;22;20405;-81
2021/01/16 00:47:36;;;;;;;29.80;20.13;;;;;;;;;;6275233;22;20348;-82
2021/01/16 00:50:02;;;;;;;30.35;19.85;;;;;;;;;;6275544;22;20856;-82
2021/01/16 00:52:32;;;;;;;27.47;19.53;;;;;;;;;;6274682;22;20373;-80
2021/01/16 00:54:58;;;;;;;29.33;20.02;;;;;;;;;;6275775;22;20349;-81
2021/01/16 00:57:26;;;;;;;28.55;20.02;;;;;;;;;;6275376;22;20350;-80
2021/01/16 00:59:52;;;;;;;29.55;19.85;;;;;;;;;;6275584;22;20352;-81
2021/01/16 01:02:18;;;;;;;29.10;20.45;;;;;;;;;;6275383;22;20394;-82
2021/01/16 01:04:44;;;;;;;29.45;20.42;;;;;;;;;;6275727;22;20891;-82
2021/01/16 01:07:10;;;;;;;28.45;18.98;;;;;;;;;;6274690;22;20711;-81
2021/01/16 01:09:37;;;;;;;28.88;20.33;;;;;;;;;;6275407;22;20358;-82
2021/01/16 01:12:03;;;;;;;30.00;18.88;;;;;;;;;;6275776;22;20424;-81
2021/01/16 01:14:29;;;;;;;28.48;19.83;;;;;;;;;;6275585;22;20343;-81
2021/01/16 01:16:55;;;;;;;28.70;19.77;;;;;;;;;;6274835;22;20430;-80
2021/01/16 01:19:21;;;;;;;28.67;19.80;;;;;;;;;;6275363;22;20339;-82
2021/01/16 01:21:47;;;;;;;28.58;20.17;;;;;;;;;;6275473;22;20378;-82
2021/01/16 01:24:13;;;;;;;29.17;19.83;;;;;;;;;;6275123;22;20350;-83
2021/01/16 01:26:39;;;;;;;30.85;20.83;;;;;;;;;;6275244;22;20389;-81
2021/01/16 01:29:06;;;;;;;29.38;20.67;;;;;;;;;;6275928;22;20646;-81
2021/01/16 01:31:32;;;;;;;27.80;19.73;;;;;;;;;;6275904;22;20385;-80
2021/01/16 01:33:58;;;;;;;30.27;20.23;;;;;;;;;;6275240;22;20712;-81
2021/01/16 01:36:24;;;;;;;28.73;19.77;;;;;;;;;;6275585;22;20942;-80
2021/01/16 01:38:51;;;;;;;29.50;19.50;;;;;;;;;;6274471;22;20346;-81
2021/01/16 01:41:17;;;;;;;27.45;19.48;;;;;;;;;;6276201;22;20413;-81
2021/01/16 01:43:43;;;;;;;29.60;19.90;;;;;;;;;;6275040;22;20698;-80
2021/01/16 01:46:09;;;;;;;26.52;18.52;;;;;;;;;;6275585;22;20339;-81
2021/01/16 01:48:35;;;;;;;27.55;19.55;;;;;;;;;;6274708;22;20437;-81
2021/01/16 01:51:01;;;;;;;26.95;18.40;;;;;;;;;;6275356;22;20405;-82
2021/01/16 01:53:29;;;;;;;27.20;18.43;;;;;;;;;;6275443;22;20429;-81
2021/01/16 01:55:55;;;;;;;27.55;18.75;;;;;;;;;;6274392;22;20430;-80
2021/01/16 01:58:23;;;;;;;26.48;18.23;;;;;;;;;;6275079;22;20848;-81
2021/01/16 02:00:50;;;;;;;24.85;17.83;;;;;;;;;;6274105;22;20342;-81
2021/01/16 02:03:16;;;;;;;27.42;18.70;;;;;;;;;;6274997;22;20363;-81
2021/01/16 02:05:42;;;;;;;26.88;18.00;;;;;;;;;;6274040;22;20353;-81
2021/01/16 02:08:08;;;;;;;26.88;18.55;;;;;;;;;;6275329;22;20425;-81
2021/01/16 02:10:34;;;;;;;27.27;18.52;;;;;;;;;;6274817;22;20468;-80
2021/01/16 02:13:00;;;;;;;26.20;18.42;;;;;;;;;;6275881;22;20370;-81
2021/01/16 02:15:44;;;;;;;28.73;18.63;;;;;;;;;;6274590;22;20408;-80
2021/01/16 02:18:20;;;;;;;27.75;18.42;;;;;;;;;;6274959;22;20359;-82
2021/01/16 02:20:47;;;;;;;30.77;18.53;;;;;;;;;;6273448;22;20389;-81
2021/01/16 02:23:19;;;;;;;25.40;17.57;;;;;;;;;;6275389;22;20666;-81
2021/01/16 02:25:54;;;;;;;26.50;18.25;;;;;;;;;;6274476;22;20475;-81
2021/01/16 02:28:24;;;;;;;26.00;17.90;;;;;;;;;;6274362;22;20342;-81
2021/01/16 02:30:51;;;;;;;28.00;19.03;;;;;;;;;;6274235;22;21159;-83
2021/01/16 02:33:20;;;;;;;25.20;17.38;;;;;;;;;;6274162;22;20346;-81
2021/01/16 02:35:52;;;;;;;26.67;18.38;;;;;;;;;;6272559;22;20350;-81
2021/01/16 02:38:34;;;;;;;28.83;17.45;;;;;;;;;;6274312;22;20460;-81
2021/01/16 02:41:04;;;;;;;27.55;17.55;;;;;;;;;;6274245;22;20346;-81
2021/01/16 02:43:42;;;;;;;26.77;18.63;;;;;;;;;;6274633;22;20371;-81
2021/01/16 02:46:17;;;;;;;28.63;18.23;;;;;;;;;;6273718;22;20381;-82
2021/01/16 02:48:55;;;;;;;26.42;17.75;;;;;;;;;;6274057;22;20438;-81
2021/01/16 02:51:31;;;;;;;27.40;18.70;;;;;;;;;;6274601;22;20373;-81
2021/01/16 02:54:00;;;;;;;26.98;18.23;;;;;;;;;;6274768;22;20343;-81
2021/01/16 02:56:28;;;;;;;26.02;16.92;;;;;;;;;;6274401;22;20361;-82
2021/01/16 02:58:55;;;;;;;25.85;17.98;;;;;;;;;;6274021;22;20365;-81
2021/01/16 03:01:21;;;;;;;27.15;18.50;;;;;;;;;;6274286;22;20390;-81
2021/01/16 03:03:47;;;;;;;28.83;18.23;;;;;;;;;;6274093;22;20343;-81
2021/01/16 03:06:13;;;;;;;28.40;19.08;;;;;;;;;;6273367;22;20639;-82
2021/01/16 03:08:39;;;;;;;25.40;18.20;;;;;;;;;;6273772;22;20355;-82
2021/01/16 03:11:07;;;;;;;26.38;18.52;;;;;;;;;;6273818;22;20370;-82
2021/01/16 03:13:33;;;;;;;28.52;20.02;;;;;;;;;;6274228;22;20556;-81
2021/01/16 03:16:04;;;;;;;27.15;18.30;;;;;;;;;;6274310;22;20361;-82
2021/01/16 03:18:32;;;;;;;26.73;18.20;;;;;;;;;;6273868;22;20982;-82
2021/01/16 03:21:02;;;;;;;28.20;19.23;;;;;;;;;;6274006;22;20381;-83
2021/01/16 03:23:31;;;;;;;25.08;17.90;;;;;;;;;;6273547;22;20375;-82
2021/01/16 03:25:57;;;;;;;29.48;19.05;;;;;;;;;;6274147;22;20375;-82
2021/01/16 03:28:23;;;;;;;28.60;19.38;;;;;;;;;;6273491;22;20382;-81
2021/01/16 03:30:49;;;;;;;28.52;18.67;;;;;;;;;;6274354;22;20361;-81
2021/01/16 03:33:15;;;;;;;24.77;17.67;;;;;;;;;;6274145;22;20373;-80
2021/01/16 03:35:41;;;;;;;25.33;17.92;;;;;;;;;;6274106;22;20346;-81
2021/01/16 03:38:07;;;;;;;28.50;18.13;;;;;;;;;;6273438;22;20382;-82
2021/01/16 03:40:33;;;;;;;26.77;17.90;;;;;;;;;;6273581;22;20420;-82
2021/01/16 03:42:59;;;;;;;27.05;17.50;;;;;;;;;;6273986;22;20391;-82
2021/01/16 03:45:25;;;;;;;27.05;18.73;;;;;;;;;;6272924;22;20384;-81
2021/01/16 03:47:51;;;;;;;26.40;18.75;;;;;;;;;;6273058;22;20754;-80
2021/01/16 03:50:17;;;;;;;26.02;17.85;;;;;;;;;;6273769;22;20440;-83
2021/01/16 03:52:43;;;;;;;26.23;17.90;;;;;;;;;;6273138;22;20358;-82
2021/01/16 03:55:10;;;;;;;26.60;18.30;;;;;;;;;;6274859;22;20416;-82
2021/01/16 03:57:37;;;;;;;25.20;17.30;;;;;;;;;;6274817;22;20442;-80
2021/01/16 04:00:07;;;;;;;26.98;18.55;;;;;;;;;;6274574;22;20381;-82
2021/01/16 04:02:33;;;;;;;25.63;17.42;;;;;;;;;;6272468;22;20944;-82
2021/01/16 04:04:59;;;;;;;25.35;17.25;;;;;;;;;;6274111;22;20397;-82
2021/01/16 04:07:25;;;;;;;25.50;18.00;;;;;;;;;;6273337;22;20359;-82
2021/01/16 04:09:51;;;;;;;24.25;16.77;;;;;;;;;;6273861;22;20389;-81
2021/01/16 04:12:17;;;;;;;26.38;17.70;;;;;;;;;;6274757;22;20440;-82
2021/01/16 04:14:43;;;;;;;25.37;17.30;;;;;;;;;;6273762;22;20446;-81
2021/01/16 04:17:09;;;;;;;25.20;17.17;;;;;;;;;;6273855;22;20361;-82
2021/01/16 04:19:36;;;;;;;28.95;18.05;;;;;;;;;;6273480;22;20446;-81
2021/01/16 04:22:02;;;;;;;25.80;17.73;;;;;;;;;;6274656;22;20389;-81
2021/01/16 04:24:28;;;;;;;24.67;17.13;;;;;;;;;;6276248;22;20435;-81
2021/01/16 04:26:54;;;;;;;26.05;18.15;;;;;;;;;;6276280;22;20430;-82
2021/01/16 04:29:20;;;;;;;28.45;18.20;;;;;;;;;;6274557;22;20349;-82
2021/01/16 04:31:47;;;;;;;29.15;18.25;;;;;;;;;;6276034;22;20350;-80
2021/01/16 04:34:14;;;;;;;26.88;17.08;;;;;;;;;;6275139;22;20350;-81
2021/01/16 04:36:40;;;;;;;25.02;17.95;;;;;;;;;;6275757;22;20347;-83
2021/01/16 04:39:06;;;;;;;24.05;17.05;;;;;;;;;;6275864;22;20346;-82
2021/01/16 04:41:34;;;;;;;25.50;17.88;;;;;;;;;;6276419;22;20374;-83
2021/01/16 04:44:00;;;;;;;26.50;17.47;;;;;;;;;;6274895;22;20758;-83
2021/01/16 04:46:27;;;;;;;25.63;18.10;;;;;;;;;;6276273;22;20419;-80
2021/01/16 04:49:03;;;;;;;26.20;17.70;;;;;;;;;;6274888;22;20354;-82
2021/01/16 04:51:33;;;;;;;25.52;17.65;;;;;;;;;;6275529;22;20458;-82
2021/01/16 04:54:00;;;;;;;25.80;17.27;;;;;;;;;;6274658;22;20369;-82
2021/01/16 04:56:30;;;;;;;27.63;18.15;;;;;;;;;;6274619;22;20350;-83
2021/01/16 04:58:56;;;;;;;25.00;17.52;;;;;;;;;;6275330;22;20383;-82
2021/01/16 05:01:23;;;;;;;26.27;18.47;;;;;;;;;;6275511;22;20390;-82
2021/01/16 05:03:51;;;;;;;26.48;18.25;;;;;;;;;;6276062;22;20355;-81
2021/01/16 05:06:18;;;;;;;28.20;18.27;;;;;;;;;;6275180;22;20412;-82
2021/01/16 05:08:45;;;;;;;25.85;17.50;;;;;;;;;;6275434;22;20353;-83
2021/01/16 05:11:13;;;;;;;25.50;17.90;;;;;;;;;;6274639;22;20381;-81
2021/01/16 05:13:54;;;;;;;26.75;18.35;;;;;;;;;;6275202;22;20421;-82
2021/01/16 05:16:24;;;;;;;22.70;17.00;;;;;;;;;;6275479;22;20353;-81
2021/01/16 05:18:51;;;;;;;24.23;17.30;;;;;;;;;;6275375;22;20649;-82
2021/01/16 05:21:18;;;;;;;28.77;18.73;;;;;;;;;;6275137;22;20347;-81
2021/01/16 05:23:45;;;;;;;26.33;18.02;;;;;;;;;;6275224;22;20706;-82
2021/01/16 05:26:12;;;;;;;25.88;17.90;;;;;;;;;;6273875;22;20349;-82
2021/01/16 05:28:39;;;;;;;24.48;17.17;;;;;;;;;;6275304;22;20426;-81
2021/01/16 05:31:06;;;;;;;26.65;18.25;;;;;;;;;;6274825;22;20372;-82
2021/01/16 05:33:39;;;;;;;24.17;16.90;;;;;;;;;;6274124;22;20360;-80
2021/01/16 05:36:07;;;;;;;26.80;18.23;;;;;;;;;;6275699;22;20411;-80
2021/01/16 05:38:36;;;;;;;28.27;18.80;;;;;;;;;;6275224;22;20399;-80
2021/01/16 05:41:09;;;;;;;26.35;17.67;;;;;;;;;;6275623;22;20342;-82
2021/01/16 05:43:36;;;;;;;28.02;18.42;;;;;;;;;;6275326;22;20357;-80
2021/01/16 05:46:03;;;;;;;25.25;18.58;;;;;;;;;;6275006;22;20372;-81
2021/01/16 05:48:30;;;;;;;27.85;17.95;;;;;;;;;;6275892;22;20386;-80
2021/01/16 05:50:57;;;;;;;25.23;18.17;;;;;;;;;;6275132;22;20430;-81
2021/01/16 05:53:26;;;;;;;28.80;18.50;;;;;;;;;;6275592;22;20358;-81
2021/01/16 05:55:56;;;;;;;27.52;18.25;;;;;;;;;;6273442;22;20347;-82
2021/01/16 05:58:24;;;;;;;28.42;18.10;;;;;;;;;;6275423;22;20388;-82
2021/01/16 06:00:51;;;;;;;29.33;19.35;;;;;;;;;;6274205;22;20373;-82
2021/01/16 06:03:18;;;;;;;24.73;17.50;;;;;;;;;;6275138;22;20444;-82
2021/01/16 06:05:48;;;;;;;26.63;19.23;;;;;;;;;;6275479;22;20351;-81
2021/01/16 06:08:14;;;;;;;23.80;17.42;;;;;;;;;;6274803;22;20385;-82
2021/01/16 06:10:42;;;;;;;26.67;18.23;;;;;;;;;;6274241;22;20494;-81
2021/01/16 06:13:13;;;;;;;26.10;18.15;;;;;;;;;;6275299;22;20444;-81
2021/01/16 06:15:43;;;;;;;26.88;18.35;;;;;;;;;;6274658;22;20359;-82
2021/01/16 06:18:14;;;;;;;27.58;18.60;;;;;;;;;;6276606;22;20358;-85
2021/01/16 06:20:47;;;;;;;27.10;18.35;;;;;;;;;;6274467;22;20346;-84
2021/01/16 06:23:16;;;;;;;25.33;17.98;;;;;;;;;;6275654;22;20439;-88
2021/01/16 06:25:42;;;;;;;26.50;18.50;;;;;;;;;;6274911;22;20749;-84
2021/01/16 06:28:12;;;;;;;27.15;18.30;;;;;;;;;;6275776;22;20347;-81
2021/01/16 06:30:38;;;;;;;25.48;18.48;;;;;;;;;;6274504;22;20412;-81
2021/01/16 06:33:05;;;;;;;25.40;18.40;;;;;;;;;;6275505;22;20818;-81
2021/01/16 06:35:32;;;;;;;25.75;18.45;;;;;;;;;;6274874;22;20437;-82
2021/01/16 06:37:58;;;;;;;28.43;18.77;;;;;;;;;;6274901;22;20354;-83
2021/01/16 06:40:29;;;;;;;25.50;17.85;;;;;;;;;;6273860;22;20361;-81
2021/01/16 06:42:56;;;;;;;27.27;18.57;;;;;;;;;;6274674;22;20382;-81
2021/01/16 06:45:26;;;;;;;25.80;18.15;;;;;;;;;;6274412;22;20390;-82
2021/01/16 06:47:56;;;;;;;30.20;18.98;;;;;;;;;;6274237;22;20494;-83
2021/01/16 06:50:22;;;;;;;27.98;18.77;;;;;;;;;;6273737;22;20347;-81
2021/01/16 06:52:48;;;;;;;28.80;19.00;;;;;;;;;;6274072;22;20842;-82
2021/01/16 06:55:17;;;;;;;29.02;19.10;;;;;;;;;;6274504;22;20347;-82
2021/01/16 06:57:43;;;;;;;27.33;18.98;;;;;;;;;;6274263;22;20895;-82
2021/01/16 07:00:10;;;;;;;29.48;19.02;;;;;;;;;;6275193;22;20419;-82
2021/01/16 07:02:37;;;;;;;27.25;18.25;;;;;;;;;;6273042;22;20382;-82
2021/01/16 07:05:22;;;;;;;27.05;18.52;;;;;;;;;;6274769;22;20425;-81
2021/01/16 07:07:51;;;;;;;26.85;17.40;;;;;;;;;;6274535;22;20342;-81
2021/01/16 07:10:17;;;;;;;24.88;17.95;;;;;;;;;;6273722;22;20374;-81
2021/01/16 07:12:46;;;;;;;24.08;17.02;;;;;;;;;;6274015;22;20358;-83
2021/01/16 07:15:12;;;;;;;24.38;17.45;;;;;;;;;;6275016;22;20937;-81
2021/01/16 07:17:38;;;;;;;26.98;17.52;;;;;;;;;;6274144;22;20347;-82
2021/01/16 07:20:05;;;;;;;24.52;17.83;;;;;;;;;;6274099;22;20342;-82
2021/01/16 07:22:32;;;;;;;24.85;17.73;;;;;;;;;;6273741;22;20871;-81
2021/01/16 07:25:00;;;;;;;26.02;17.95;;;;;;;;;;6274671;22;20788;-82
2021/01/16 07:27:26;;;;;;;25.05;17.83;;;;;;;;;;6273084;22;20402;-82
2021/01/16 07:29:56;;;;;;;25.80;18.08;;;;;;;;;;6274855;22;20975;-81
2021/01/16 07:32:32;;;;;;;25.40;17.83;;;;;;;;;;6274788;22;20382;-81
2021/01/16 07:35:00;;;;;;;24.35;17.50;;;;;;;;;;6273304;22;20425;-81
2021/01/16 07:37:26;;;;;;;25.60;17.33;;;;;;;;;;6273982;22;20696;-82
2021/01/16 07:39:57;;;;;;;25.52;17.42;;;;;;;;;;6273774;22;20422;-81
2021/01/16 07:42:25;;;;;;;23.10;16.90;;;;;;;;;;6274042;22;20432;-82
2021/01/16 07:44:59;;;;;;;28.95;17.55;;;;;;;;;;6273909;22;20397;-82
2021/01/16 07:47:26;;;;;;;25.27;17.23;;;;;;;;;;6274352;22;20353;-81
2021/01/16 07:49:53;;;;;;;26.13;17.55;;;;;;;;;;6273555;22;20782;-82
2021/01/16 07:52:22;;;;;;;24.20;17.37;;;;;;;;;;6273631;22;20393;-85
2021/01/16 07:54:51;;;;;;;25.63;17.55;;;;;;;;;;6274130;22;20408;-81
2021/01/16 07:57:17;;;;;;;25.75;18.35;;;;;;;;;;6273793;22;20380;-82
2021/01/16 07:59:49;;;;;;;26.02;17.45;;;;;;;;;;6274809;22;20346;-80
2021/01/16 08:02:24;;;;;;;27.25;18.13;;;;;;;;;;6272969;22;20398;-81
2021/01/16 08:05:04;;;;;;;24.38;17.67;;;;;;;;;;6273884;22;20358;-84
2021/01/16 08:07:49;;;;;;;23.33;17.25;;;;;;;;;;6273770;22;20423;-82
2021/01/16 08:10:19;;;;;;;24.30;17.08;;;;;;;;;;6273658;22;20418;-81
2021/01/16 08:12:48;;;;;;;24.27;17.17;;;;;;;;;;6301156;22;20409;-79
2021/01/16 08:15:20;;;;;;;23.23;16.70;;;;;;;;;;6273290;22;20346;-81
2021/01/16 08:17:46;;;;;;;23.35;17.30;;;;;;;;;;6274185;22;20849;-81
2021/01/16 08:20:18;;;;;;;29.95;18.83;;;;;;;;;;6273957;22;20349;-82
2021/01/16 08:22:51;;;;;;;24.65;18.20;;;;;;;;;;6272632;22;20457;-82
2021/01/16 08:25:20;;;;;;;25.43;17.40;;;;;;;;;;6274199;22;20404;-81
2021/01/16 08:27:50;;;;;;;25.30;18.13;;;;;;;;;;6273268;22;20350;-82
2021/01/16 08:30:17;;;;;;;25.95;18.27;;;;;;;;;;6273572;22;20420;-81
2021/01/16 08:32:56;;;;;;;25.23;18.38;;;;;;;;;;6273239;22;20373;-81
2021/01/16 08:35:23;;;;;;;25.33;17.65;;;;;;;;;;6272675;22;20366;-81
2021/01/16 08:37:50;;;;;;;27.42;17.90;;;;;;;;;;6272061;22;20362;-82
2021/01/16 08:40:31;;;;;;;28.60;17.55;;;;;;;;;;6271750;22;20492;-82
2021/01/16 08:42:57;;;;;;;24.63;17.55;;;;;;;;;;6272613;22;20381;-83
2021/01/16 08:45:24;;;;;;;27.13;18.85;;;;;;;;;;6272281;22;20350;-81
2021/01/16 08:47:54;;;;;;;27.77;18.58;;;;;;;;;;6272569;22;20345;-81
2021/01/16 08:50:22;;;;;;;29.48;19.27;;;;;;;;;;6274495;22;20343;-81
2021/01/16 08:52:48;;;;;;;26.88;18.83;;;;;;;;;;6274074;22;20350;-82
2021/01/16 08:55:14;;;;;;;23.98;17.67;;;;;;;;;;6273947;22;20425;-80
2021/01/16 08:57:40;;;;;;;28.98;18.63;;;;;;;;;;6273748;22;20433;-81
2021/01/16 09:00:36;;;;;;;27.23;18.73;;;;;;;;;;6300538;22;20405;-81
2021/01/16 09:03:16;;;;;;;27.92;18.48;;;;;;;;;;6274213;22;20390;-81
2021/01/16 09:05:42;;;;;;;26.23;18.17;;;;;;;;;;6273210;22;20366;-81
2021/01/16 09:08:24;;;;;;;26.15;18.05;;;;;;;;;;6275614;22;20617;-81
2021/01/16 09:10:51;;;;;;;24.60;17.50;;;;;;;;;;6275545;22;20390;-81
2021/01/16 09:13:27;;;;;;;26.85;17.63;;;;;;;;;;6275509;22;20342;-80
2021/01/16 09:15:54;;;;;;;28.10;17.17;;;;;;;;;;6275274;22;20354;-81
2021/01/16 09:18:20;;;;;;;25.00;18.03;;;;;;;;;;6274507;22;20343;-81
2021/01/16 09:20:47;;;;;;;25.30;17.70;;;;;;;;;;6275928;22;20408;-82
2021/01/16 09:23:19;;;;;;;25.75;17.95;;;;;;;;;;6273489;22;20386;-81
2021/01/16 09:25:49;;;;;;;26.23;18.38;;;;;;;;;;6275622;22;20361;-81
2021/01/16 09:28:15;;;;;;;25.92;17.88;;;;;;;;;;6274826;22;20385;-81
2021/01/16 09:30:41;;;;;;;27.65;18.05;;;;;;;;;;6275918;22;20642;-81
2021/01/16 09:33:27;;;;;;;25.52;18.23;;;;;;;;;;6274794;22;20347;-77
2021/01/16 09:35:53;;;;;;;25.60;18.20;;;;;;;;;;6302586;22;21026;-80
2021/01/16 09:38:22;;;;;;;27.57;18.33;;;;;;;;;;6274902;22;21103;-81
2021/01/16 09:40:50;;;;;;;26.70;17.05;;;;;;;;;;6275057;22;20742;-80
2021/01/16 09:43:26;;;;;;;29.58;18.83;;;;;;;;;;6275969;22;20519;-81
2021/01/16 09:46:01;;;;;;;27.17;18.53;;;;;;;;;;6276060;22;20676;-79
2021/01/16 09:48:39;;;;;;;28.80;18.63;;;;;;;;;;6275604;22;20380;-81
2021/01/16 09:51:06;;;;;;;27.92;18.20;;;;;;;;;;6275567;22;20875;-80
2021/01/16 09:53:32;;;;;;;24.88;17.60;;;;;;;;;;6302783;22;20340;-80
2021/01/16 09:55:59;;;;;;;28.13;19.58;;;;;;;;;;6275428;22;20334;-80
2021/01/16 09:58:28;;;;;;;29.52;19.98;;;;;;;;;;6274276;22;20373;-81
2021/01/16 10:00:55;;;;;;;28.90;20.35;;;;;;;;;;6274978;22;20349;-81
2021/01/16 10:03:33;;;;;;;30.98;20.35;;;;;;;;;;6275532;22;20377;-81
2021/01/16 10:06:06;;;;;;;29.02;20.48;;;;;;;;;;6275047;22;20354;-81
2021/01/16 10:08:33;;;;;;;26.88;19.13;;;;;;;;;;6274812;22;20409;-82
2021/01/16 10:11:00;;;;;;;27.85;19.00;;;;;;;;;;6273723;22;20432;-82
2021/01/16 10:13:30;;;;;;;24.80;18.17;;;;;;;;;;6273978;22;20347;-81
2021/01/16 10:15:58;;;;;;;25.15;18.38;;;;;;;;;;6274738;22;20395;-81
2021/01/16 10:18:26;;;;;;;25.02;18.25;;;;;;;;;;6275479;22;20361;-81
2021/01/16 10:21:02;;;;;;;27.47;18.73;;;;;;;;;;6275096;22;20394;-80
2021/01/16 10:23:29;;;;;;;27.97;19.40;;;;;;;;;;6274332;22;20983;-81
2021/01/16 10:26:12;;;;;;;25.55;18.48;;;;;;;;;;6274876;22;20773;-81
2021/01/16 10:28:40;;;;;;;28.88;18.60;;;;;;;;;;6275372;22;20390;-82
2021/01/16 10:31:07;;;;;;;27.30;18.63;;;;;;;;;;6274741;22;20736;-82
2021/01/16 10:33:43;;;;;;;28.63;19.40;;;;;;;;;;6275247;22;20385;-81
2021/01/16 10:36:11;;;;;;;26.48;17.98;;;;;;;;;;6274570;22;20393;-82
2021/01/16 10:38:49;;;;;;;27.92;18.83;;;;;;;;;;6274356;22;20370;-81
2021/01/16 10:41:17;;;;;;;27.40;18.83;;;;;;;;;;6273770;22;20802;-81
2021/01/16 10:43:44;;;;;;;25.80;18.33;;;;;;;;;;6273267;22;20437;-83
2021/01/16 10:46:12;;;;;;;26.17;19.00;;;;;;;;;;6270824;22;20342;-81
2021/01/16 10:48:39;;;;;;;27.67;18.88;;;;;;;;;;6274425;22;20363;-81
2021/01/16 10:51:09;;;;;;;26.10;18.20;;;;;;;;;;6273615;22;20337;-81
2021/01/16 10:53:36;;;;;;;29.95;19.10;;;;;;;;;;6274107;22;20413;-81
2021/01/16 10:56:08;;;;;;;26.60;18.83;;;;;;;;;;6273948;22;20338;-81
2021/01/16 10:58:34;;;;;;;27.17;18.92;;;;;;;;;;6274478;22;20402;-81
2021/01/16 11:01:03;;;;;;;27.45;18.90;;;;;;;;;;6274718;22;20351;-82
2021/01/16 11:03:33;;;;;;;32.40;20.27;;;;;;;;;;6274628;22;20382;-79
2021/01/16 11:06:07;;;;;;;29.48;19.15;;;;;;;;;;6274726;22;20365;-82
2021/01/16 11:08:34;;;;;;;29.92;19.20;;;;;;;;;;6274792;22;20394;-82
2021/01/16 11:11:00;;;;;;;30.45;20.33;;;;;;;;;;6273302;22;20902;-81
2021/01/16 11:13:28;;;;;;;27.90;19.92;;;;;;;;;;6275025;22;20347;-82
2021/01/16 11:16:16;;;;;;;33.85;21.92;;;;;;;;;;6274676;22;20361;-80
2021/01/16 11:18:42;;;;;;;29.13;19.60;;;;;;;;;;6275378;22;20349;-84
2021/01/16 11:21:11;;;;;;;27.50;19.73;;;;;;;;;;6273229;22;20476;-82
2021/01/16 11:23:46;;;;;;;31.93;20.60;;;;;;;;;;6275011;22;20405;-80
2021/01/16 11:26:12;;;;;;;27.67;18.90;;;;;;;;;;6274406;22;20370;-80
2021/01/16 11:28:57;;;;;;;30.35;19.85;;;;;;;;;;6274952;22;20350;-80
2021/01/16 11:31:28;;;;;;;27.87;18.53;;;;;;;;;;6274263;22;20473;-81
2021/01/16 11:34:17;;;;;;;28.23;18.30;;;;;;;;;;6300895;22;20841;-82
2021/01/16 11:36:52;;;;;;;25.00;16.27;;;;;;;;;;6274209;22;20460;-81
2021/01/16 11:39:37;;;;;;;27.15;17.27;;;;;;;;;;6274648;22;20512;-80
2021/01/16 11:42:03;;;;;;;24.42;16.58;;;;;;;;;;6274028;22;20515;-80
2021/01/16 11:44:30;;;;;;;25.90;16.60;;;;;;;;;;6274836;22;20779;-79
2021/01/16 11:46:56;;;;;;;26.05;17.55;;;;;;;;;;6274615;22;20433;-80
2021/01/16 11:49:22;;;;;;;24.65;16.48;;;;;;;;;;6302123;22;20330;-80
2021/01/16 11:51:48;;;;;;;26.23;17.83;;;;;;;;;;6274500;22;20338;-80
2021/01/16 11:54:14;;;;;;;25.25;18.10;;;;;;;;;;6274956;22;20353;-80
2021/01/16 11:56:41;;;;;;;23.38;16.95;;;;;;;;;;6274478;22;20338;-78
2021/01/16 11:59:08;;;;;;;27.45;17.13;;;;;;;;;;6274264;22;20354;-81
2021/01/16 12:01:38;;;;;;;25.20;17.88;;;;;;;;;;6273627;22;20377;-80
2021/01/16 12:04:05;;;;;;;24.05;17.17;;;;;;;;;;6274437;22;20915;-82
2021/01/16 12:06:31;;;;;;;24.75;16.05;;;;;;;;;;6273033;22;20445;-79
2021/01/16 12:08:58;;;;;;;23.30;15.60;;;;;;;;;;6272155;22;20342;-82
2021/01/16 12:11:25;;;;;;;22.38;15.15;;;;;;;;;;6274055;22;20599;-80
2021/01/16 12:13:51;;;;;;;22.63;14.82;;;;;;;;;;6273902;22;20425;-81
2021/01/16 12:16:18;;;;;;;23.40;15.73;;;;;;;;;;6299447;22;20377;-81
2021/01/16 12:18:44;;;;;;;22.27;15.73;;;;;;;;;;6271791;22;20362;-80
2021/01/16 12:21:11;;;;;;;25.38;17.33;;;;;;;;;;6272776;22;20765;-80
2021/01/16 12:23:45;;;;;;;29.15;18.48;;;;;;;;;;6270927;22;20881;-81
2021/01/16 12:26:16;;;;;;;24.67;16.88;;;;;;;;;;6272163;22;20412;-81
2021/01/16 12:28:46;;;;;;;24.30;16.27;;;;;;;;;;6274606;22;20414;-81
2021/01/16 12:31:22;;;;;;;26.13;17.33;;;;;;;;;;6274072;22;20394;-81
2021/01/16 12:33:50;;;;;;;23.15;16.08;;;;;;;;;;6271741;22;20401;-80
2021/01/16 12:36:16;;;;;;;21.38;15.38;;;;;;;;;;6271139;22;20429;-81
2021/01/16 12:38:47;;;;;;;24.40;15.90;;;;;;;;;;6272562;22;20365;-80
2021/01/16 12:41:19;;;;;;;23.27;15.83;;;;;;;;;;6272383;22;20430;-81
2021/01/16 12:43:49;;;;;;;22.88;15.38;;;;;;;;;;6274842;22;20423;-80
2021/01/16 12:46:16;;;;;;;24.45;16.10;;;;;;;;;;6274502;22;20366;-82
2021/01/16 12:48:42;;;;;;;22.67;14.73;;;;;;;;;;6273089;22;20346;-82
2021/01/16 12:51:08;;;;;;;20.83;13.55;;;;;;;;;;6273511;22;20369;-81
2021/01/16 12:53:34;;;;;;;20.23;13.65;;;;;;;;;;6273843;22;20354;-80
2021/01/16 12:56:00;;;;;;;21.05;14.50;;;;;;;;;;6273811;22;20359;-81
2021/01/16 12:58:26;;;;;;;20.90;14.03;;;;;;;;;;6274767;22;20436;-79
2021/01/16 13:00:52;;;;;;;20.10;13.75;;;;;;;;;;6273784;22;20363;-79
2021/01/16 13:03:18;;;;;;;22.30;13.95;;;;;;;;;;6273443;22;20418;-80
2021/01/16 13:05:44;;;;;;;21.27;14.30;;;;;;;;;;6273464;22;20860;-79
2021/01/16 13:08:10;;;;;;;21.05;13.10;;;;;;;;;;6274233;22;20373;-79
2021/01/16 13:10:44;;;;;;;21.63;14.27;;;;;;;;;;6273915;22;20994;-79
2021/01/16 13:13:14;;;;;;;20.88;14.05;;;;;;;;;;6275181;22;20456;-78
2021/01/16 13:15:41;;;;;;;20.83;13.40;;;;;;;;;;6270977;22;20391;-79
2021/01/16 13:18:19;;;;;;;18.53;12.90;;;;;;;;;;6273571;22;20350;-79
2021/01/16 13:20:47;;;;;;;17.38;12.13;;;;;;;;;;6273437;22;20407;-80
2021/01/16 13:23:13;;;;;;;18.02;12.40;;;;;;;;;;6272839;22;20426;-79
2021/01/16 13:25:39;;;;;;;18.45;12.18;;;;;;;;;;6273435;22;20374;-80
2021/01/16 13:28:05;;;;;;;17.63;11.93;;;;;;;;;;6275826;22;20778;-79
2021/01/16 13:30:31;;;;;;;15.95;11.43;;;;;;;;;;6276341;22;20588;-80
2021/01/16 13:32:57;;;;;;;19.83;12.67;;;;;;;;;;6274465;22;20771;-80
2021/01/16 13:35:30;;;;;;;20.02;12.45;;;;;;;;;;6273267;22;20527;-80
2021/01/16 13:37:58;;;;;;;16.95;11.55;;;;;;;;;;6273779;22;20372;-81
2021/01/16 13:40:25;;;;;;;17.70;11.35;;;;;;;;;;6276417;22;20470;-80
2021/01/16 13:43:02;;;;;;;17.85;11.35;;;;;;;;;;6274339;22;20378;-80
2021/01/16 13:45:28;;;;;;;17.58;11.85;;;;;;;;;;6275009;22;20415;-80
2021/01/16 13:48:00;;;;;;;18.00;11.98;;;;;;;;;;6275261;22;20358;-81
2021/01/16 13:50:26;;;;;;;16.63;11.27;;;;;;;;;;6275521;22;20347;-79
2021/01/16 13:52:54;;;;;;;16.95;11.82;;;;;;;;;;6275409;22;20355;-80
2021/01/16 13:55:21;;;;;;;16.42;11.48;;;;;;;;;;6275486;22;20387;-80
2021/01/16 13:58:08;;;;;;;18.00;11.80;;;;;;;;;;6274514;22;20350;-80
2021/01/16 14:00:42;;;;;;;18.77;12.57;;;;;;;;;;6275491;22;20395;-80
2021/01/16 14:03:09;;;;;;;18.27;11.50;;;;;;;;;;6275475;22;20521;-80
2021/01/16 14:05:36;;;;;;;18.05;11.95;;;;;;;;;;6274597;22;20369;-80
2021/01/16 14:08:15;;;;;;;18.73;11.80;;;;;;;;;;6276060;22;20350;-80
2021/01/16 14:10:45;;;;;;;19.10;12.13;;;;;;;;;;6274504;22;20498;-80
2021/01/16 14:13:15;;;;;;;17.40;11.77;;;;;;;;;;6274102;22;20881;-80
2021/01/16 14:16:01;;;;;;;20.02;11.50;;;;;;;;;;6272914;22;20863;-80
2021/01/16 14:18:28;;;;;;;22.05;10.68;;;;;;;;;;6273411;22;20426;-80
2021/01/16 14:20:54;;;;;;;16.38;10.35;;;;;;;;;;6273727;22;20358;-80
2021/01/16 14:23:33;;;;;;;15.82;11.10;;;;;;;;;;6273326;22;20393;-82
2021/01/16 14:26:14;;;;;;;17.48;10.95;;;;;;;;;;6273423;22;20430;-80